sensor_id;sensor_type;location;lat;lon;timestamp;P1;durP1;ratioP1;P2;durP2;ratioP2
22318;SDS011;11327;52.334;9.506;2023-10-09T00:02:42;3.00;;;1.57;;
22318;SDS011;11327;52.334;9.506;2023-10-09T00:06:03;2.85;;;1.30;;
22318;SDS011;11327;52.334;9.506;2023-10-09T00:09:25;2.05;;;1.00;;
22318;SDS011;11327;52.334;9.506;2023-10-09T00:12:47;3.15;;;1.52;;
22318;SDS011;11327;52.334;9.506;2023-10-09T00:16:09;2.83;;;1.50;;
22318;SDS011;11327;52.334;9.506;2023-10-09T00:19:32;3.92;;;1.32;;
22318;SDS011;11327;52.334;9.506;2023-10-09T00:22:54;3.17;;;1.30;;
22318;SDS011;11327;52.334;9.506;2023-10-09T00:26:17;4.17;;;1.55;;
22318;SDS011;11327;52.334;9.506;2023-10-09T00:29:38;3.02;;;1.40;;
22318;SDS011;11327;52.334;9.506;2023-10-09T00:33:01;3.77;;;1.40;;
22318;SDS011;11327;52.334;9.506;2023-10-09T00:36:24;2.92;;;1.50;;
22318;SDS011;11327;52.334;9.506;2023-10-09T00:39:46;4.08;;;1.37;;
22318;SDS011;11327;52.334;9.506;2023-10-09T00:43:09;2.50;;;1.12;;
22318;SDS011;11327;52.334;9.506;2023-10-09T00:46:31;3.15;;;1.57;;
22318;SDS011;11327;52.334;9.506;2023-10-09T00:49:56;3.90;;;1.40;;
22318;SDS011;11327;52.334;9.506;2023-10-09T00:53:21;2.45;;;1.45;;
22318;SDS011;11327;52.334;9.506;2023-10-09T00:56:44;3.47;;;1.32;;
22318;SDS011;11327;52.334;9.506;2023-10-09T01:00:07;3.35;;;1.45;;
22318;SDS011;11327;52.334;9.506;2023-10-09T01:03:36;4.03;;;1.60;;
22318;SDS011;11327;52.334;9.506;2023-10-09T01:06:59;3.42;;;1.65;;
22318;SDS011;11327;52.334;9.506;2023-10-09T01:10:43;3.27;;;1.62;;
22318;SDS011;11327;52.334;9.506;2023-10-09T01:13:56;4.22;;;1.80;;
22318;SDS011;11327;52.334;9.506;2023-10-09T01:17:30;2.90;;;1.65;;
22318;SDS011;11327;52.334;9.506;2023-10-09T01:20:57;4.03;;;1.50;;
22318;SDS011;11327;52.334;9.506;2023-10-09T01:24:19;3.35;;;1.85;;
22318;SDS011;11327;52.334;9.506;2023-10-09T01:27:40;3.83;;;1.80;;
22318;SDS011;11327;52.334;9.506;2023-10-09T01:31:01;3.75;;;1.80;;
22318;SDS011;11327;52.334;9.506;2023-10-09T01:34:22;3.27;;;1.87;;
22318;SDS011;11327;52.334;9.506;2023-10-09T01:37:59;3.02;;;1.70;;
22318;SDS011;11327;52.334;9.506;2023-10-09T01:41:20;3.20;;;1.42;;
22318;SDS011;11327;52.334;9.506;2023-10-09T01:44:40;2.70;;;1.60;;
22318;SDS011;11327;52.334;9.506;2023-10-09T01:48:04;5.40;;;2.30;;
22318;SDS011;11327;52.334;9.506;2023-10-09T01:51:25;3.77;;;1.85;;
22318;SDS011;11327;52.334;9.506;2023-10-09T01:54:50;3.22;;;1.80;;
22318;SDS011;11327;52.334;9.506;2023-10-09T01:58:11;3.85;;;2.02;;
22318;SDS011;11327;52.334;9.506;2023-10-09T02:01:40;3.30;;;1.80;;
22318;SDS011;11327;52.334;9.506;2023-10-09T02:05:03;4.12;;;2.10;;
22318;SDS011;11327;52.334;9.506;2023-10-09T02:08:27;2.95;;;1.92;;
22318;SDS011;11327;52.334;9.506;2023-10-09T02:11:50;2.87;;;1.98;;
22318;SDS011;11327;52.334;9.506;2023-10-09T02:15:11;3.80;;;1.82;;
22318;SDS011;11327;52.334;9.506;2023-10-09T02:18:34;3.05;;;1.77;;
22318;SDS011;11327;52.334;9.506;2023-10-09T02:21:56;3.40;;;1.87;;
22318;SDS011;11327;52.334;9.506;2023-10-09T02:25:17;4.25;;;2.25;;
22318;SDS011;11327;52.334;9.506;2023-10-09T02:28:40;3.80;;;2.20;;
22318;SDS011;11327;52.334;9.506;2023-10-09T02:32:01;5.17;;;2.40;;
22318;SDS011;11327;52.334;9.506;2023-10-09T02:35:23;4.62;;;2.42;;
22318;SDS011;11327;52.334;9.506;2023-10-09T02:38:52;5.15;;;2.60;;
22318;SDS011;11327;52.334;9.506;2023-10-09T02:42:14;3.25;;;2.10;;
22318;SDS011;11327;52.334;9.506;2023-10-09T02:45:37;4.72;;;2.60;;
22318;SDS011;11327;52.334;9.506;2023-10-09T02:49:01;4.97;;;2.30;;
22318;SDS011;11327;52.334;9.506;2023-10-09T02:52:24;5.28;;;2.60;;
22318;SDS011;11327;52.334;9.506;2023-10-09T02:55:45;3.83;;;2.67;;
22318;SDS011;11327;52.334;9.506;2023-10-09T02:59:24;6.10;;;2.65;;
22318;SDS011;11327;52.334;9.506;2023-10-09T03:02:45;4.60;;;2.52;;
22318;SDS011;11327;52.334;9.506;2023-10-09T03:06:09;5.53;;;2.80;;
22318;SDS011;11327;52.334;9.506;2023-10-09T03:09:31;4.95;;;3.12;;
22318;SDS011;11327;52.334;9.506;2023-10-09T03:12:52;5.00;;;2.60;;
22318;SDS011;11327;52.334;9.506;2023-10-09T03:16:16;4.67;;;3.12;;
22318;SDS011;11327;52.334;9.506;2023-10-09T03:19:39;5.83;;;2.70;;
22318;SDS011;11327;52.334;9.506;2023-10-09T03:26:41;5.72;;;2.83;;
22318;SDS011;11327;52.334;9.506;2023-10-09T03:30:04;5.90;;;3.12;;
22318;SDS011;11327;52.334;9.506;2023-10-09T03:33:26;6.20;;;3.67;;
22318;SDS011;11327;52.334;9.506;2023-10-09T03:36:47;9.00;;;3.98;;
22318;SDS011;11327;52.334;9.506;2023-10-09T03:40:13;9.63;;;4.78;;
22318;SDS011;11327;52.334;9.506;2023-10-09T03:43:36;10.08;;;5.17;;
22318;SDS011;11327;52.334;9.506;2023-10-09T03:47:01;14.93;;;7.37;;
22318;SDS011;11327;52.334;9.506;2023-10-09T03:50:22;15.63;;;9.03;;
22318;SDS011;11327;52.334;9.506;2023-10-09T03:53:58;18.77;;;10.45;;
22318;SDS011;11327;52.334;9.506;2023-10-09T03:57:19;29.45;;;16.20;;
22318;SDS011;11327;52.334;9.506;2023-10-09T04:00:40;31.87;;;16.25;;
22318;SDS011;11327;52.334;9.506;2023-10-09T04:04:04;29.20;;;15.95;;
22318;SDS011;11327;52.334;9.506;2023-10-09T04:07:27;31.68;;;17.57;;
22318;SDS011;11327;52.334;9.506;2023-10-09T04:10:49;26.82;;;15.88;;
22318;SDS011;11327;52.334;9.506;2023-10-09T04:14:12;25.08;;;15.45;;
22318;SDS011;11327;52.334;9.506;2023-10-09T04:17:36;30.27;;;16.37;;
22318;SDS011;11327;52.334;9.506;2023-10-09T04:20:58;34.80;;;18.12;;
22318;SDS011;11327;52.334;9.506;2023-10-09T04:24:37;35.03;;;19.25;;
22318;SDS011;11327;52.334;9.506;2023-10-09T04:28:00;38.98;;;20.17;;
22318;SDS011;11327;52.334;9.506;2023-10-09T04:31:30;41.65;;;21.77;;
22318;SDS011;11327;52.334;9.506;2023-10-09T04:34:55;41.95;;;22.98;;
22318;SDS011;11327;52.334;9.506;2023-10-09T04:38:20;42.90;;;22.60;;
22318;SDS011;11327;52.334;9.506;2023-10-09T04:41:43;41.20;;;20.32;;
22318;SDS011;11327;52.334;9.506;2023-10-09T04:45:05;40.35;;;22.50;;
22318;SDS011;11327;52.334;9.506;2023-10-09T04:48:29;42.80;;;22.98;;
22318;SDS011;11327;52.334;9.506;2023-10-09T04:51:58;42.75;;;22.10;;
22318;SDS011;11327;52.334;9.506;2023-10-09T04:55:21;42.75;;;22.85;;
22318;SDS011;11327;52.334;9.506;2023-10-09T04:58:45;38.60;;;22.40;;
22318;SDS011;11327;52.334;9.506;2023-10-09T05:02:07;43.20;;;22.50;;
22318;SDS011;11327;52.334;9.506;2023-10-09T05:05:30;40.95;;;21.20;;
22318;SDS011;11327;52.334;9.506;2023-10-09T05:09:05;37.20;;;21.33;;
22318;SDS011;11327;52.334;9.506;2023-10-09T05:12:28;35.73;;;20.62;;
22318;SDS011;11327;52.334;9.506;2023-10-09T05:15:49;42.30;;;21.10;;
22318;SDS011;11327;52.334;9.506;2023-10-09T05:19:12;40.48;;;21.52;;
22318;SDS011;11327;52.334;9.506;2023-10-09T05:22:34;38.60;;;20.77;;
22318;SDS011;11327;52.334;9.506;2023-10-09T05:25:58;36.80;;;19.40;;
22318;SDS011;11327;52.334;9.506;2023-10-09T05:29:21;33.60;;;19.10;;
22318;SDS011;11327;52.334;9.506;2023-10-09T05:32:54;36.10;;;19.10;;
22318;SDS011;11327;52.334;9.506;2023-10-09T05:36:17;35.38;;;18.77;;
22318;SDS011;11327;52.334;9.506;2023-10-09T05:39:43;33.92;;;19.32;;
22318;SDS011;11327;52.334;9.506;2023-10-09T05:43:06;34.23;;;19.15;;
22318;SDS011;11327;52.334;9.506;2023-10-09T05:46:27;33.42;;;19.07;;
22318;SDS011;11327;52.334;9.506;2023-10-09T05:49:50;31.68;;;18.62;;
22318;SDS011;11327;52.334;9.506;2023-10-09T05:53:30;35.80;;;20.88;;
22318;SDS011;11327;52.334;9.506;2023-10-09T05:57:08;35.03;;;20.32;;
22318;SDS011;11327;52.334;9.506;2023-10-09T06:00:47;38.67;;;19.90;;
22318;SDS011;11327;52.334;9.506;2023-10-09T06:04:27;39.27;;;20.32;;
22318;SDS011;11327;52.334;9.506;2023-10-09T06:08:06;35.70;;;19.30;;
22318;SDS011;11327;52.334;9.506;2023-10-09T06:11:27;33.63;;;18.07;;
22318;SDS011;11327;52.334;9.506;2023-10-09T06:14:55;34.73;;;19.65;;
22318;SDS011;11327;52.334;9.506;2023-10-09T06:18:20;33.23;;;18.27;;
22318;SDS011;11327;52.334;9.506;2023-10-09T06:21:49;37.00;;;19.77;;
22318;SDS011;11327;52.334;9.506;2023-10-09T06:25:14;31.68;;;18.23;;
22318;SDS011;11327;52.334;9.506;2023-10-09T06:28:37;33.48;;;19.00;;
22318;SDS011;11327;52.334;9.506;2023-10-09T06:32:00;31.62;;;18.60;;
22318;SDS011;11327;52.334;9.506;2023-10-09T06:35:41;33.28;;;18.60;;
22318;SDS011;11327;52.334;9.506;2023-10-09T06:39:04;32.28;;;18.45;;
22318;SDS011;11327;52.334;9.506;2023-10-09T06:42:43;35.90;;;20.27;;
22318;SDS011;11327;52.334;9.506;2023-10-09T06:46:04;35.78;;;19.60;;
22318;SDS011;11327;52.334;9.506;2023-10-09T06:49:45;34.55;;;19.27;;
22318;SDS011;11327;52.334;9.506;2023-10-09T06:53:07;30.50;;;18.10;;
22318;SDS011;11327;52.334;9.506;2023-10-09T06:56:32;34.27;;;19.60;;
22318;SDS011;11327;52.334;9.506;2023-10-09T06:59:56;37.38;;;20.32;;
22318;SDS011;11327;52.334;9.506;2023-10-09T07:03:18;39.27;;;20.65;;
22318;SDS011;11327;52.334;9.506;2023-10-09T07:06:40;38.53;;;20.97;;
22318;SDS011;11327;52.334;9.506;2023-10-09T07:10:03;34.13;;;19.67;;
22318;SDS011;11327;52.334;9.506;2023-10-09T07:13:42;39.48;;;22.30;;
22318;SDS011;11327;52.334;9.506;2023-10-09T07:17:05;38.75;;;22.52;;
22318;SDS011;11327;52.334;9.506;2023-10-09T07:20:43;41.33;;;24.35;;
22318;SDS011;11327;52.334;9.506;2023-10-09T07:24:06;39.90;;;22.90;;
22318;SDS011;11327;52.334;9.506;2023-10-09T07:27:35;37.90;;;22.00;;
22318;SDS011;11327;52.334;9.506;2023-10-09T07:31:05;43.90;;;23.55;;
22318;SDS011;11327;52.334;9.506;2023-10-09T07:34:28;38.85;;;23.55;;
22318;SDS011;11327;52.334;9.506;2023-10-09T07:37:52;44.85;;;25.50;;
22318;SDS011;11327;52.334;9.506;2023-10-09T07:41:13;41.80;;;23.70;;
22318;SDS011;11327;52.334;9.506;2023-10-09T07:44:36;38.38;;;23.75;;
22318;SDS011;11327;52.334;9.506;2023-10-09T07:47:59;35.65;;;21.95;;
22318;SDS011;11327;52.334;9.506;2023-10-09T07:51:24;39.75;;;22.82;;
22318;SDS011;11327;52.334;9.506;2023-10-09T07:54:51;40.65;;;24.00;;
22318;SDS011;11327;52.334;9.506;2023-10-09T07:58:17;41.10;;;24.32;;
22318;SDS011;11327;52.334;9.506;2023-10-09T08:01:40;37.80;;;22.67;;
22318;SDS011;11327;52.334;9.506;2023-10-09T08:05:03;39.63;;;23.20;;
22318;SDS011;11327;52.334;9.506;2023-10-09T08:08:26;40.35;;;22.73;;
22318;SDS011;11327;52.334;9.506;2023-10-09T08:11:49;42.62;;;24.30;;
22318;SDS011;11327;52.334;9.506;2023-10-09T08:15:29;39.42;;;23.83;;
22318;SDS011;11327;52.334;9.506;2023-10-09T08:18:57;39.08;;;22.80;;
22318;SDS011;11327;52.334;9.506;2023-10-09T08:22:22;37.10;;;21.27;;
22318;SDS011;11327;52.334;9.506;2023-10-09T08:25:46;32.98;;;20.55;;
22318;SDS011;11327;52.334;9.506;2023-10-09T08:29:08;37.48;;;22.00;;
22318;SDS011;11327;52.334;9.506;2023-10-09T08:32:38;37.30;;;21.27;;
22318;SDS011;11327;52.334;9.506;2023-10-09T08:36:01;34.88;;;20.15;;
22318;SDS011;11327;52.334;9.506;2023-10-09T08:39:28;37.05;;;20.77;;
22318;SDS011;11327;52.334;9.506;2023-10-09T08:42:53;33.35;;;19.95;;
22318;SDS011;11327;52.334;9.506;2023-10-09T08:46:14;36.70;;;20.95;;
22318;SDS011;11327;52.334;9.506;2023-10-09T08:49:37;30.90;;;17.75;;
22318;SDS011;11327;52.334;9.506;2023-10-09T08:52:58;35.00;;;19.85;;
22318;SDS011;11327;52.334;9.506;2023-10-09T08:56:20;32.73;;;19.25;;
22318;SDS011;11327;52.334;9.506;2023-10-09T08:59:44;35.58;;;20.30;;
22318;SDS011;11327;52.334;9.506;2023-10-09T09:03:05;33.35;;;20.65;;
22318;SDS011;11327;52.334;9.506;2023-10-09T09:06:26;35.75;;;21.48;;
22318;SDS011;11327;52.334;9.506;2023-10-09T09:09:56;35.00;;;21.40;;
22318;SDS011;11327;52.334;9.506;2023-10-09T09:13:25;35.63;;;20.95;;
22318;SDS011;11327;52.334;9.506;2023-10-09T09:16:48;35.58;;;21.82;;
22318;SDS011;11327;52.334;9.506;2023-10-09T09:20:18;40.73;;;23.27;;
22318;SDS011;11327;52.334;9.506;2023-10-09T09:23:53;39.65;;;23.45;;
22318;SDS011;11327;52.334;9.506;2023-10-09T09:27:16;37.20;;;22.93;;
22318;SDS011;11327;52.334;9.506;2023-10-09T09:30:40;34.40;;;22.85;;
22318;SDS011;11327;52.334;9.506;2023-10-09T09:34:01;38.17;;;24.10;;
22318;SDS011;11327;52.334;9.506;2023-10-09T09:37:24;40.00;;;24.10;;
22318;SDS011;11327;52.334;9.506;2023-10-09T09:40:49;36.30;;;24.10;;
22318;SDS011;11327;52.334;9.506;2023-10-09T09:44:12;38.88;;;23.90;;
22318;SDS011;11327;52.334;9.506;2023-10-09T09:47:34;40.23;;;25.77;;
22318;SDS011;11327;52.334;9.506;2023-10-09T09:50:58;33.55;;;23.38;;
22318;SDS011;11327;52.334;9.506;2023-10-09T09:54:19;36.25;;;23.60;;
22318;SDS011;11327;52.334;9.506;2023-10-09T09:57:41;36.03;;;23.30;;
22318;SDS011;11327;52.334;9.506;2023-10-09T10:01:05;33.55;;;21.93;;
22318;SDS011;11327;52.334;9.506;2023-10-09T10:04:40;31.52;;;18.45;;
22318;SDS011;11327;52.334;9.506;2023-10-09T10:08:04;21.95;;;15.90;;
22318;SDS011;11327;52.334;9.506;2023-10-09T10:15:08;23.40;;;14.73;;
22318;SDS011;11327;52.334;9.506;2023-10-09T10:18:31;22.22;;;13.50;;
22318;SDS011;11327;52.334;9.506;2023-10-09T10:21:53;17.73;;;12.28;;
22318;SDS011;11327;52.334;9.506;2023-10-09T10:32:55;15.38;;;10.53;;
22318;SDS011;11327;52.334;9.506;2023-10-09T10:36:29;16.02;;;11.70;;
22318;SDS011;11327;52.334;9.506;2023-10-09T10:39:51;17.73;;;12.80;;
22318;SDS011;11327;52.334;9.506;2023-10-09T10:43:16;17.90;;;13.10;;
22318;SDS011;11327;52.334;9.506;2023-10-09T10:46:53;20.90;;;14.43;;
22318;SDS011;11327;52.334;9.506;2023-10-09T10:50:14;20.95;;;15.28;;
22318;SDS011;11327;52.334;9.506;2023-10-09T10:57:19;23.75;;;17.65;;
22318;SDS011;11327;52.334;9.506;2023-10-09T11:00:40;29.32;;;19.52;;
22318;SDS011;11327;52.334;9.506;2023-10-09T11:04:21;30.30;;;21.50;;
22318;SDS011;11327;52.334;9.506;2023-10-09T11:07:47;30.40;;;21.20;;
22318;SDS011;11327;52.334;9.506;2023-10-09T11:11:14;33.50;;;21.33;;
22318;SDS011;11327;52.334;9.506;2023-10-09T11:14:36;33.77;;;23.67;;
22318;SDS011;11327;52.334;9.506;2023-10-09T11:18:07;34.58;;;23.87;;
22318;SDS011;11327;52.334;9.506;2023-10-09T11:21:28;34.90;;;24.27;;
22318;SDS011;11327;52.334;9.506;2023-10-09T11:24:52;32.53;;;22.98;;
22318;SDS011;11327;52.334;9.506;2023-10-09T11:28:18;30.77;;;23.00;;
22318;SDS011;11327;52.334;9.506;2023-10-09T11:32:02;28.77;;;21.02;;
22318;SDS011;11327;52.334;9.506;2023-10-09T11:35:25;29.92;;;22.13;;
22318;SDS011;11327;52.334;9.506;2023-10-09T11:38:50;30.50;;;21.10;;
22318;SDS011;11327;52.334;9.506;2023-10-09T11:42:14;28.83;;;20.40;;
22318;SDS011;11327;52.334;9.506;2023-10-09T11:45:35;26.20;;;18.67;;
22318;SDS011;11327;52.334;9.506;2023-10-09T11:49:07;23.55;;;17.20;;
22318;SDS011;11327;52.334;9.506;2023-10-09T11:52:55;21.23;;;16.15;;
22318;SDS011;11327;52.334;9.506;2023-10-09T11:56:29;24.35;;;17.02;;
22318;SDS011;11327;52.334;9.506;2023-10-09T11:59:52;20.97;;;15.78;;
22318;SDS011;11327;52.334;9.506;2023-10-09T12:03:13;23.38;;;17.80;;
22318;SDS011;11327;52.334;9.506;2023-10-09T12:06:34;25.12;;;19.57;;
22318;SDS011;11327;52.334;9.506;2023-10-09T12:09:55;23.22;;;18.67;;
22318;SDS011;11327;52.334;9.506;2023-10-09T12:13:16;26.50;;;19.73;;
22318;SDS011;11327;52.334;9.506;2023-10-09T12:16:37;23.87;;;18.23;;
22318;SDS011;11327;52.334;9.506;2023-10-09T12:20:00;26.15;;;19.37;;
22318;SDS011;11327;52.334;9.506;2023-10-09T12:23:22;26.45;;;20.12;;
22318;SDS011;11327;52.334;9.506;2023-10-09T12:26:45;24.57;;;19.30;;
22318;SDS011;11327;52.334;9.506;2023-10-09T12:30:08;24.82;;;18.82;;
22318;SDS011;11327;52.334;9.506;2023-10-09T12:33:29;25.32;;;19.48;;
22318;SDS011;11327;52.334;9.506;2023-10-09T12:36:50;23.45;;;18.02;;
22318;SDS011;11327;52.334;9.506;2023-10-09T12:40:11;23.85;;;18.20;;
22318;SDS011;11327;52.334;9.506;2023-10-09T12:43:32;22.17;;;17.57;;
22318;SDS011;11327;52.334;9.506;2023-10-09T12:46:54;21.48;;;18.50;;
22318;SDS011;11327;52.334;9.506;2023-10-09T12:50:15;23.32;;;18.92;;
22318;SDS011;11327;52.334;9.506;2023-10-09T12:53:37;26.65;;;20.02;;
22318;SDS011;11327;52.334;9.506;2023-10-09T12:56:59;24.37;;;19.20;;
22318;SDS011;11327;52.334;9.506;2023-10-09T13:00:20;25.43;;;20.12;;
22318;SDS011;11327;52.334;9.506;2023-10-09T13:03:43;24.57;;;19.82;;
22318;SDS011;11327;52.334;9.506;2023-10-09T13:07:03;26.48;;;20.90;;
22318;SDS011;11327;52.334;9.506;2023-10-09T13:10:26;27.70;;;21.85;;
22318;SDS011;11327;52.334;9.506;2023-10-09T13:13:48;29.55;;;21.70;;
22318;SDS011;11327;52.334;9.506;2023-10-09T13:17:12;24.95;;;20.02;;
22318;SDS011;11327;52.334;9.506;2023-10-09T13:20:33;26.82;;;19.98;;
22318;SDS011;11327;52.334;9.506;2023-10-09T13:23:56;26.10;;;20.68;;
22318;SDS011;11327;52.334;9.506;2023-10-09T13:27:17;26.27;;;21.05;;
22318;SDS011;11327;52.334;9.506;2023-10-09T13:30:40;24.95;;;19.62;;
22318;SDS011;11327;52.334;9.506;2023-10-09T13:34:03;29.70;;;21.25;;
22318;SDS011;11327;52.334;9.506;2023-10-09T13:37:26;26.60;;;20.57;;
22318;SDS011;11327;52.334;9.506;2023-10-09T13:40:47;26.95;;;20.95;;
22318;SDS011;11327;52.334;9.506;2023-10-09T13:44:09;27.75;;;20.80;;
22318;SDS011;11327;52.334;9.506;2023-10-09T13:47:30;24.85;;;20.25;;
22318;SDS011;11327;52.334;9.506;2023-10-09T13:50:57;25.12;;;20.43;;
22318;SDS011;11327;52.334;9.506;2023-10-09T13:54:19;27.93;;;21.90;;
22318;SDS011;11327;52.334;9.506;2023-10-09T13:57:44;27.00;;;21.70;;
22318;SDS011;11327;52.334;9.506;2023-10-09T14:01:05;27.13;;;21.20;;
22318;SDS011;11327;52.334;9.506;2023-10-09T14:04:28;26.33;;;21.27;;
22318;SDS011;11327;52.334;9.506;2023-10-09T14:07:49;26.95;;;21.15;;
22318;SDS011;11327;52.334;9.506;2023-10-09T14:11:10;24.43;;;20.48;;
22318;SDS011;11327;52.334;9.506;2023-10-09T14:14:33;28.75;;;20.95;;
22318;SDS011;11327;52.334;9.506;2023-10-09T14:18:09;26.42;;;21.60;;
22318;SDS011;11327;52.334;9.506;2023-10-09T14:21:32;25.52;;;20.62;;
22318;SDS011;11327;52.334;9.506;2023-10-09T14:24:55;25.10;;;21.00;;
22318;SDS011;11327;52.334;9.506;2023-10-09T14:28:16;26.48;;;20.40;;
22318;SDS011;11327;52.334;9.506;2023-10-09T14:31:39;27.80;;;20.92;;
22318;SDS011;11327;52.334;9.506;2023-10-09T14:35:00;30.35;;;21.07;;
22318;SDS011;11327;52.334;9.506;2023-10-09T14:38:25;27.22;;;20.82;;
22318;SDS011;11327;52.334;9.506;2023-10-09T14:41:50;25.48;;;20.37;;
22318;SDS011;11327;52.334;9.506;2023-10-09T14:45:11;26.62;;;20.75;;
22318;SDS011;11327;52.334;9.506;2023-10-09T14:48:34;24.40;;;18.95;;
22318;SDS011;11327;52.334;9.506;2023-10-09T14:51:57;22.80;;;18.45;;
22318;SDS011;11327;52.334;9.506;2023-10-09T14:55:19;25.62;;;20.08;;
22318;SDS011;11327;52.334;9.506;2023-10-09T14:58:44;23.77;;;19.98;;
22318;SDS011;11327;52.334;9.506;2023-10-09T15:02:07;30.62;;;22.07;;
22318;SDS011;11327;52.334;9.506;2023-10-09T15:05:27;26.82;;;20.48;;
22318;SDS011;11327;52.334;9.506;2023-10-09T15:08:50;27.90;;;19.57;;
22318;SDS011;11327;52.334;9.506;2023-10-09T15:12:11;24.12;;;17.40;;
22318;SDS011;11327;52.334;9.506;2023-10-09T15:15:32;22.13;;;16.37;;
22318;SDS011;11327;52.334;9.506;2023-10-09T15:18:53;21.45;;;16.65;;
22318;SDS011;11327;52.334;9.506;2023-10-09T15:22:15;22.45;;;17.30;;
22318;SDS011;11327;52.334;9.506;2023-10-09T15:25:35;21.25;;;16.15;;
22318;SDS011;11327;52.334;9.506;2023-10-09T15:29:01;20.82;;;16.52;;
22318;SDS011;11327;52.334;9.506;2023-10-09T15:32:26;22.30;;;16.20;;
22318;SDS011;11327;52.334;9.506;2023-10-09T15:35:47;20.60;;;15.50;;
22318;SDS011;11327;52.334;9.506;2023-10-09T15:39:10;24.07;;;15.90;;
22318;SDS011;11327;52.334;9.506;2023-10-09T15:42:31;19.92;;;13.85;;
22318;SDS011;11327;52.334;9.506;2023-10-09T15:45:52;19.57;;;14.40;;
22318;SDS011;11327;52.334;9.506;2023-10-09T15:49:13;18.70;;;13.83;;
22318;SDS011;11327;52.334;9.506;2023-10-09T15:52:37;19.70;;;14.15;;
22318;SDS011;11327;52.334;9.506;2023-10-09T15:55:58;20.75;;;15.10;;
22318;SDS011;11327;52.334;9.506;2023-10-09T15:59:22;18.55;;;14.45;;
22318;SDS011;11327;52.334;9.506;2023-10-09T16:02:45;22.90;;;15.70;;
22318;SDS011;11327;52.334;9.506;2023-10-09T16:06:13;19.60;;;14.60;;
22318;SDS011;11327;52.334;9.506;2023-10-09T16:09:36;19.17;;;16.05;;
22318;SDS011;11327;52.334;9.506;2023-10-09T16:12:59;17.85;;;14.98;;
22318;SDS011;11327;52.334;9.506;2023-10-09T16:16:24;13.78;;;11.03;;
22318;SDS011;11327;52.334;9.506;2023-10-09T16:19:47;13.25;;;10.35;;
22318;SDS011;11327;52.334;9.506;2023-10-09T16:23:08;12.28;;;10.13;;
22318;SDS011;11327;52.334;9.506;2023-10-09T16:26:30;13.15;;;10.13;;
22318;SDS011;11327;52.334;9.506;2023-10-09T16:29:53;12.78;;;9.53;;
22318;SDS011;11327;52.334;9.506;2023-10-09T16:33:14;11.50;;;10.03;;
22318;SDS011;11327;52.334;9.506;2023-10-09T16:36:36;16.75;;;13.22;;
22318;SDS011;11327;52.334;9.506;2023-10-09T16:39:57;20.32;;;15.03;;
22318;SDS011;11327;52.334;9.506;2023-10-09T16:43:20;18.25;;;13.93;;
22318;SDS011;11327;52.334;9.506;2023-10-09T16:46:45;15.30;;;12.80;;
22318;SDS011;11327;52.334;9.506;2023-10-09T16:50:07;18.12;;;12.85;;
22318;SDS011;11327;52.334;9.506;2023-10-09T16:53:32;16.00;;;11.65;;
22318;SDS011;11327;52.334;9.506;2023-10-09T16:56:54;16.17;;;11.75;;
22318;SDS011;11327;52.334;9.506;2023-10-09T17:00:18;13.95;;;11.43;;
22318;SDS011;11327;52.334;9.506;2023-10-09T17:03:48;14.90;;;10.80;;
22318;SDS011;11327;52.334;9.506;2023-10-09T17:07:11;16.23;;;12.23;;
22318;SDS011;11327;52.334;9.506;2023-10-09T17:10:34;19.07;;;13.62;;
22318;SDS011;11327;52.334;9.506;2023-10-09T17:13:56;16.37;;;12.47;;
22318;SDS011;11327;52.334;9.506;2023-10-09T17:17:17;14.13;;;10.08;;
22318;SDS011;11327;52.334;9.506;2023-10-09T17:20:40;11.00;;;7.40;;
22318;SDS011;11327;52.334;9.506;2023-10-09T17:24:03;9.43;;;6.45;;
22318;SDS011;11327;52.334;9.506;2023-10-09T17:27:24;10.80;;;6.55;;
22318;SDS011;11327;52.334;9.506;2023-10-09T17:30:45;8.03;;;6.42;;
22318;SDS011;11327;52.334;9.506;2023-10-09T17:34:08;9.33;;;6.22;;
22318;SDS011;11327;52.334;9.506;2023-10-09T17:37:29;10.70;;;6.35;;
22318;SDS011;11327;52.334;9.506;2023-10-09T17:40:50;8.88;;;5.70;;
22318;SDS011;11327;52.334;9.506;2023-10-09T17:44:11;10.38;;;5.92;;
22318;SDS011;11327;52.334;9.506;2023-10-09T17:47:34;10.45;;;5.70;;
22318;SDS011;11327;52.334;9.506;2023-10-09T17:50:55;10.32;;;6.00;;
22318;SDS011;11327;52.334;9.506;2023-10-09T17:54:18;7.87;;;4.97;;
22318;SDS011;11327;52.334;9.506;2023-10-09T17:57:41;5.37;;;4.50;;
22318;SDS011;11327;52.334;9.506;2023-10-09T18:01:02;9.43;;;5.00;;
22318;SDS011;11327;52.334;9.506;2023-10-09T18:04:27;12.80;;;5.28;;
22318;SDS011;11327;52.334;9.506;2023-10-09T18:07:50;5.45;;;4.53;;
22318;SDS011;11327;52.334;9.506;2023-10-09T18:11:10;10.38;;;4.95;;
22318;SDS011;11327;52.334;9.506;2023-10-09T18:14:33;7.62;;;4.87;;
22318;SDS011;11327;52.334;9.506;2023-10-09T18:17:55;7.70;;;5.55;;
22318;SDS011;11327;52.334;9.506;2023-10-09T18:21:16;7.95;;;4.50;;
22318;SDS011;11327;52.334;9.506;2023-10-09T18:24:39;8.00;;;4.58;;
22318;SDS011;11327;52.334;9.506;2023-10-09T18:28:01;7.75;;;4.60;;
22318;SDS011;11327;52.334;9.506;2023-10-09T18:31:21;6.33;;;5.03;;
22318;SDS011;11327;52.334;9.506;2023-10-09T18:34:42;11.50;;;5.30;;
22318;SDS011;11327;52.334;9.506;2023-10-09T18:38:04;11.90;;;5.47;;
22318;SDS011;11327;52.334;9.506;2023-10-09T18:41:25;8.90;;;5.03;;
22318;SDS011;11327;52.334;9.506;2023-10-09T18:44:46;10.93;;;5.00;;
22318;SDS011;11327;52.334;9.506;2023-10-09T18:48:06;9.05;;;4.75;;
22318;SDS011;11327;52.334;9.506;2023-10-09T18:51:29;8.15;;;4.80;;
22318;SDS011;11327;52.334;9.506;2023-10-09T18:54:51;7.37;;;4.80;;
22318;SDS011;11327;52.334;9.506;2023-10-09T18:58:11;7.75;;;4.58;;
22318;SDS011;11327;52.334;9.506;2023-10-09T19:01:36;9.95;;;5.05;;
22318;SDS011;11327;52.334;9.506;2023-10-09T19:04:56;10.53;;;4.67;;
22318;SDS011;11327;52.334;9.506;2023-10-09T19:08:17;8.68;;;4.45;;
22318;SDS011;11327;52.334;9.506;2023-10-09T19:11:40;8.88;;;5.03;;
22318;SDS011;11327;52.334;9.506;2023-10-09T19:15:04;8.88;;;4.25;;
22318;SDS011;11327;52.334;9.506;2023-10-09T19:18:30;7.97;;;4.47;;
22318;SDS011;11327;52.334;9.506;2023-10-09T19:21:58;11.45;;;4.75;;
22318;SDS011;11327;52.334;9.506;2023-10-09T19:25:18;10.35;;;5.00;;
22318;SDS011;11327;52.334;9.506;2023-10-09T19:28:43;10.68;;;4.47;;
22318;SDS011;11327;52.334;9.506;2023-10-09T19:32:04;8.88;;;4.70;;
22318;SDS011;11327;52.334;9.506;2023-10-09T19:35:26;8.93;;;4.40;;
22318;SDS011;11327;52.334;9.506;2023-10-09T19:38:48;11.18;;;5.30;;
22318;SDS011;11327;52.334;9.506;2023-10-09T19:42:12;9.15;;;5.20;;
22318;SDS011;11327;52.334;9.506;2023-10-09T19:45:32;10.60;;;5.28;;
22318;SDS011;11327;52.334;9.506;2023-10-09T19:48:53;9.03;;;4.70;;
22318;SDS011;11327;52.334;9.506;2023-10-09T19:52:15;13.45;;;4.25;;
22318;SDS011;11327;52.334;9.506;2023-10-09T19:55:39;6.90;;;4.30;;
22318;SDS011;11327;52.334;9.506;2023-10-09T19:59:02;9.90;;;4.60;;
22318;SDS011;11327;52.334;9.506;2023-10-09T20:02:23;7.90;;;3.95;;
22318;SDS011;11327;52.334;9.506;2023-10-09T20:05:45;9.00;;;4.40;;
22318;SDS011;11327;52.334;9.506;2023-10-09T20:09:05;7.75;;;4.30;;
22318;SDS011;11327;52.334;9.506;2023-10-09T20:12:28;9.15;;;4.67;;
22318;SDS011;11327;52.334;9.506;2023-10-09T20:15:56;14.15;;;4.65;;
22318;SDS011;11327;52.334;9.506;2023-10-09T20:19:17;9.25;;;3.50;;
22318;SDS011;11327;52.334;9.506;2023-10-09T20:22:39;10.80;;;4.22;;
22318;SDS011;11327;52.334;9.506;2023-10-09T20:26:00;8.40;;;3.90;;